sensor_id;sensor_type;location;lat;lon;timestamp;temperature;humidity
17948;DHT22;9099;47.958;11.366;2023-04-28T00:01:36;10.20;99.90
17948;DHT22;9099;47.958;11.366;2023-04-28T00:04:03;10.20;99.90
17948;DHT22;9099;47.958;11.366;2023-04-28T00:06:30;10.20;99.90
17948;DHT22;9099;47.958;11.366;2023-04-28T00:08:57;10.20;99.90
17948;DHT22;9099;47.958;11.366;2023-04-28T00:11:25;10.20;99.90
17948;DHT22;9099;47.958;11.366;2023-04-28T00:13:52;10.20;99.90
17948;DHT22;9099;47.958;11.366;2023-04-28T00:16:19;10.20;99.90
17948;DHT22;9099;47.958;11.366;2023-04-28T00:18:46;10.20;99.90
17948;DHT22;9099;47.958;11.366;2023-04-28T00:21:13;10.20;99.90
17948;DHT22;9099;47.958;11.366;2023-04-28T00:23:40;10.20;99.90
17948;DHT22;9099;47.958;11.366;2023-04-28T00:26:06;10.10;99.90
17948;DHT22;9099;47.958;11.366;2023-04-28T00:28:35;10.10;99.90
17948;DHT22;9099;47.958;11.366;2023-04-28T00:31:08;10.10;99.90
17948;DHT22;9099;47.958;11.366;2023-04-28T00:33:35;10.00;99.90
17948;DHT22;9099;47.958;11.366;2023-04-28T00:36:02;10.00;99.90
17948;DHT22;9099;47.958;11.366;2023-04-28T00:38:29;10.00;99.90
17948;DHT22;9099;47.958;11.366;2023-04-28T00:40:56;9.90;99.90
17948;DHT22;9099;47.958;11.366;2023-04-28T00:43:23;9.90;99.90
17948;DHT22;9099;47.958;11.366;2023-04-28T00:45:52;9.90;99.90
17948;DHT22;9099;47.958;11.366;2023-04-28T00:48:19;9.90;99.90
17948;DHT22;9099;47.958;11.366;2023-04-28T00:50:47;9.80;99.90
17948;DHT22;9099;47.958;11.366;2023-04-28T00:53:14;9.90;99.90
17948;DHT22;9099;47.958;11.366;2023-04-28T00:55:41;9.90;99.90
17948;DHT22;9099;47.958;11.366;2023-04-28T00:58:08;9.90;99.90
17948;DHT22;9099;47.958;11.366;2023-04-28T01:00:36;9.90;99.90
17948;DHT22;9099;47.958;11.366;2023-04-28T01:03:05;9.90;99.90
17948;DHT22;9099;47.958;11.366;2023-04-28T01:05:32;9.90;99.90
17948;DHT22;9099;47.958;11.366;2023-04-28T01:08:00;10.00;99.90
17948;DHT22;9099;47.958;11.366;2023-04-28T01:10:27;10.00;99.90
17948;DHT22;9099;47.958;11.366;2023-04-28T01:12:54;10.00;99.90
17948;DHT22;9099;47.958;11.366;2023-04-28T01:15:21;10.10;99.90
17948;DHT22;9099;47.958;11.366;2023-04-28T01:17:48;10.10;99.90
17948;DHT22;9099;47.958;11.366;2023-04-28T01:20:16;10.10;99.90
17948;DHT22;9099;47.958;11.366;2023-04-28T01:22:43;10.20;99.90
17948;DHT22;9099;47.958;11.366;2023-04-28T01:25:11;10.10;99.90
17948;DHT22;9099;47.958;11.366;2023-04-28T01:27:38;10.10;99.90
17948;DHT22;9099;47.958;11.366;2023-04-28T01:30:06;10.10;99.90
17948;DHT22;9099;47.958;11.366;2023-04-28T01:32:33;10.20;99.90
17948;DHT22;9099;47.958;11.366;2023-04-28T01:35:00;10.20;99.90
17948;DHT22;9099;47.958;11.366;2023-04-28T01:37:27;10.10;99.90
17948;DHT22;9099;47.958;11.366;2023-04-28T01:39:54;10.10;99.90
17948;DHT22;9099;47.958;11.366;2023-04-28T01:42:23;10.10;99.90
17948;DHT22;9099;47.958;11.366;2023-04-28T01:44:50;10.00;99.90
17948;DHT22;9099;47.958;11.366;2023-04-28T01:47:17;10.00;99.90
17948;DHT22;9099;47.958;11.366;2023-04-28T01:49:44;10.00;99.90
17948;DHT22;9099;47.958;11.366;2023-04-28T01:52:12;9.90;99.90
17948;DHT22;9099;47.958;11.366;2023-04-28T01:54:39;9.90;99.90
17948;DHT22;9099;47.958;11.366;2023-04-28T01:57:06;9.90;99.90
17948;DHT22;9099;47.958;11.366;2023-04-28T01:59:34;9.90;99.90
17948;DHT22;9099;47.958;11.366;2023-04-28T02:02:01;10.00;99.90
17948;DHT22;9099;47.958;11.366;2023-04-28T02:04:28;10.00;99.90
17948;DHT22;9099;47.958;11.366;2023-04-28T02:06:55;10.10;99.90
17948;DHT22;9099;47.958;11.366;2023-04-28T02:09:21;10.10;99.90
17948;DHT22;9099;47.958;11.366;2023-04-28T02:11:48;10.20;99.90
17948;DHT22;9099;47.958;11.366;2023-04-28T02:14:15;10.20;99.90
17948;DHT22;9099;47.958;11.366;2023-04-28T02:16:43;10.20;99.90
17948;DHT22;9099;47.958;11.366;2023-04-28T02:19:10;10.30;99.90
17948;DHT22;9099;47.958;11.366;2023-04-28T02:21:37;10.30;99.90
17948;DHT22;9099;47.958;11.366;2023-04-28T02:24:05;10.40;99.90
17948;DHT22;9099;47.958;11.366;2023-04-28T02:26:33;10.50;99.90
17948;DHT22;9099;47.958;11.366;2023-04-28T02:29:00;10.40;99.90
17948;DHT22;9099;47.958;11.366;2023-04-28T02:31:28;10.20;99.90
17948;DHT22;9099;47.958;11.366;2023-04-28T02:33:57;10.10;99.90
17948;DHT22;9099;47.958;11.366;2023-04-28T02:36:24;10.10;99.90
17948;DHT22;9099;47.958;11.366;2023-04-28T02:38:52;10.20;99.90
17948;DHT22;9099;47.958;11.366;2023-04-28T02:41:19;10.20;99.90
17948;DHT22;9099;47.958;11.366;2023-04-28T02:43:45;10.20;99.90
17948;DHT22;9099;47.958;11.366;2023-04-28T02:46:12;10.20;99.90
17948;DHT22;9099;47.958;11.366;2023-04-28T02:48:39;10.20;99.90
17948;DHT22;9099;47.958;11.366;2023-04-28T02:51:07;10.20;99.90
17948;DHT22;9099;47.958;11.366;2023-04-28T02:53:34;10.20;99.90
17948;DHT22;9099;47.958;11.366;2023-04-28T02:56:01;10.10;99.90
17948;DHT22;9099;47.958;11.366;2023-04-28T02:58:29;10.10;99.90
17948;DHT22;9099;47.958;11.366;2023-04-28T03:00:56;10.10;99.90
17948;DHT22;9099;47.958;11.366;2023-04-28T03:03:22;10.30;99.90
17948;DHT22;9099;47.958;11.366;2023-04-28T03:05:49;10.30;99.90
17948;DHT22;9099;47.958;11.366;2023-04-28T03:08:17;10.40;99.90
17948;DHT22;9099;47.958;11.366;2023-04-28T03:10:45;10.40;99.90
17948;DHT22;9099;47.958;11.366;2023-04-28T03:13:12;10.40;99.90
17948;DHT22;9099;47.958;11.366;2023-04-28T03:15:39;10.40;99.90
17948;DHT22;9099;47.958;11.366;2023-04-28T03:18:06;10.50;99.90
17948;DHT22;9099;47.958;11.366;2023-04-28T03:20:33;10.50;99.90
17948;DHT22;9099;47.958;11.366;2023-04-28T03:22:59;10.40;99.90
17948;DHT22;9099;47.958;11.366;2023-04-28T03:25:28;10.40;99.90
17948;DHT22;9099;47.958;11.366;2023-04-28T03:27:55;10.30;99.90
17948;DHT22;9099;47.958;11.366;2023-04-28T03:30:22;10.20;99.90
17948;DHT22;9099;47.958;11.366;2023-04-28T03:32:49;10.20;99.90
17948;DHT22;9099;47.958;11.366;2023-04-28T03:35:16;10.20;99.90
17948;DHT22;9099;47.958;11.366;2023-04-28T03:37:42;10.30;99.90
17948;DHT22;9099;47.958;11.366;2023-04-28T03:40:10;10.30;99.90
17948;DHT22;9099;47.958;11.366;2023-04-28T03:42:38;10.30;99.90
17948;DHT22;9099;47.958;11.366;2023-04-28T03:45:06;10.40;99.90
17948;DHT22;9099;47.958;11.366;2023-04-28T03:47:33;10.40;99.90
17948;DHT22;9099;47.958;11.366;2023-04-28T03:50:00;10.40;99.90
17948;DHT22;9099;47.958;11.366;2023-04-28T03:52:27;10.40;99.90
17948;DHT22;9099;47.958;11.366;2023-04-28T03:54:53;10.40;99.90
17948;DHT22;9099;47.958;11.366;2023-04-28T03:57:20;10.40;99.90
17948;DHT22;9099;47.958;11.366;2023-04-28T03:59:48;10.40;99.90
17948;DHT22;9099;47.958;11.366;2023-04-28T04:02:15;10.40;99.90
17948;DHT22;9099;47.958;11.366;2023-04-28T04:04:42;10.50;99.90
17948;DHT22;9099;47.958;11.366;2023-04-28T04:07:09;10.50;99.90
17948;DHT22;9099;47.958;11.366;2023-04-28T04:09:36;10.50;99.90
17948;DHT22;9099;47.958;11.366;2023-04-28T04:12:04;10.60;99.90
17948;DHT22;9099;47.958;11.366;2023-04-28T04:14:31;10.60;99.90
17948;DHT22;9099;47.958;11.366;2023-04-28T04:16:59;10.70;99.90
17948;DHT22;9099;47.958;11.366;2023-04-28T04:19:26;10.70;99.90
17948;DHT22;9099;47.958;11.366;2023-04-28T04:21:52;10.70;99.90
17948;DHT22;9099;47.958;11.366;2023-04-28T04:24:19;10.70;99.90
17948;DHT22;9099;47.958;11.366;2023-04-28T04:26:46;10.70;99.90
17948;DHT22;9099;47.958;11.366;2023-04-28T04:29:13;10.80;99.90
17948;DHT22;9099;47.958;11.366;2023-04-28T04:31:40;10.70;99.90
17948;DHT22;9099;47.958;11.366;2023-04-28T04:34:08;10.80;99.90
17948;DHT22;9099;47.958;11.366;2023-04-28T04:36:35;10.80;99.90
17948;DHT22;9099;47.958;11.366;2023-04-28T04:39:02;10.80;99.90
17948;DHT22;9099;47.958;11.366;2023-04-28T04:41:29;10.90;99.90
17948;DHT22;9099;47.958;11.366;2023-04-28T04:43:56;10.90;99.90
17948;DHT22;9099;47.958;11.366;2023-04-28T04:46:23;10.90;99.90
17948;DHT22;9099;47.958;11.366;2023-04-28T04:48:50;10.80;99.90
17948;DHT22;9099;47.958;11.366;2023-04-28T04:51:18;10.80;99.90
17948;DHT22;9099;47.958;11.366;2023-04-28T04:53:45;10.90;99.90
17948;DHT22;9099;47.958;11.366;2023-04-28T04:56:12;10.90;99.90
17948;DHT22;9099;47.958;11.366;2023-04-28T04:58:42;11.00;99.90
17948;DHT22;9099;47.958;11.366;2023-04-28T05:01:09;10.90;99.90
17948;DHT22;9099;47.958;11.366;2023-04-28T05:03:35;10.90;99.90
17948;DHT22;9099;47.958;11.366;2023-04-28T05:06:02;11.00;99.90
17948;DHT22;9099;47.958;11.366;2023-04-28T05:08:31;10.90;99.90
17948;DHT22;9099;47.958;11.366;2023-04-28T05:10:58;10.90;99.90
17948;DHT22;9099;47.958;11.366;2023-04-28T05:13:24;10.90;99.90
17948;DHT22;9099;47.958;11.366;2023-04-28T05:15:51;10.90;99.90
17948;DHT22;9099;47.958;11.366;2023-04-28T05:18:18;10.90;99.90
17948;DHT22;9099;47.958;11.366;2023-04-28T05:20:45;10.80;99.90
17948;DHT22;9099;47.958;11.366;2023-04-28T05:23:13;10.80;99.90
17948;DHT22;9099;47.958;11.366;2023-04-28T05:25:41;10.90;99.90
17948;DHT22;9099;47.958;11.366;2023-04-28T05:28:09;10.90;99.90
17948;DHT22;9099;47.958;11.366;2023-04-28T05:30:36;10.90;99.90
17948;DHT22;9099;47.958;11.366;2023-04-28T05:33:02;11.00;99.90
17948;DHT22;9099;47.958;11.366;2023-04-28T05:35:29;10.90;99.90
17948;DHT22;9099;47.958;11.366;2023-04-28T05:37:56;10.90;99.90
17948;DHT22;9099;47.958;11.366;2023-04-28T05:40:23;10.90;99.90
17948;DHT22;9099;47.958;11.366;2023-04-28T05:42:52;10.90;99.90
17948;DHT22;9099;47.958;11.366;2023-04-28T05:45:19;10.90;99.90
17948;DHT22;9099;47.958;11.366;2023-04-28T05:47:46;11.00;99.90
17948;DHT22;9099;47.958;11.366;2023-04-28T05:50:12;11.00;99.90
17948;DHT22;9099;47.958;11.366;2023-04-28T05:52:39;11.10;99.90
17948;DHT22;9099;47.958;11.366;2023-04-28T05:55:07;11.20;99.90
17948;DHT22;9099;47.958;11.366;2023-04-28T05:57:34;11.20;99.90
17948;DHT22;9099;47.958;11.366;2023-04-28T06:00:03;11.30;99.90
17948;DHT22;9099;47.958;11.366;2023-04-28T06:02:30;11.40;99.90
17948;DHT22;9099;47.958;11.366;2023-04-28T06:04:57;11.40;99.90
17948;DHT22;9099;47.958;11.366;2023-04-28T06:07:24;11.40;99.90
17948;DHT22;9099;47.958;11.366;2023-04-28T06:09:51;11.50;99.90
17948;DHT22;9099;47.958;11.366;2023-04-28T06:12:17;11.60;99.90
17948;DHT22;9099;47.958;11.366;2023-04-28T06:14:44;11.70;99.90
17948;DHT22;9099;47.958;11.366;2023-04-28T06:17:12;11.70;99.90
17948;DHT22;9099;47.958;11.366;2023-04-28T06:19:39;11.70;99.90
17948;DHT22;9099;47.958;11.366;2023-04-28T06:22:06;11.70;99.90
17948;DHT22;9099;47.958;11.366;2023-04-28T06:24:33;11.70;99.90
17948;DHT22;9099;47.958;11.366;2023-04-28T06:27:00;11.60;99.90
17948;DHT22;9099;47.958;11.366;2023-04-28T06:29:27;11.60;99.90
17948;DHT22;9099;47.958;11.366;2023-04-28T06:31:54;11.50;99.90
17948;DHT22;9099;47.958;11.366;2023-04-28T06:34:24;11.50;99.90
17948;DHT22;9099;47.958;11.366;2023-04-28T06:36:53;11.40;99.90
17948;DHT22;9099;47.958;11.366;2023-04-28T06:39:20;11.40;99.90
17948;DHT22;9099;47.958;11.366;2023-04-28T06:41:47;11.50;99.90
17948;DHT22;9099;47.958;11.366;2023-04-28T06:44:14;11.50;99.90
17948;DHT22;9099;47.958;11.366;2023-04-28T06:46:41;11.50;99.90
17948;DHT22;9099;47.958;11.366;2023-04-28T06:49:07;11.50;99.90
17948;DHT22;9099;47.958;11.366;2023-04-28T06:51:36;11.50;99.90
17948;DHT22;9099;47.958;11.366;2023-04-28T06:54:03;11.50;99.90
17948;DHT22;9099;47.958;11.366;2023-04-28T06:56:30;11.40;99.90
17948;DHT22;9099;47.958;11.366;2023-04-28T06:58:57;11.40;99.90
17948;DHT22;9099;47.958;11.366;2023-04-28T07:01:24;11.40;99.90
17948;DHT22;9099;47.958;11.366;2023-04-28T07:03:51;11.50;99.90
17948;DHT22;9099;47.958;11.366;2023-04-28T07:06:18;11.50;99.90
17948;DHT22;9099;47.958;11.366;2023-04-28T07:08:47;11.50;99.90
17948;DHT22;9099;47.958;11.366;2023-04-28T07:11:13;11.60;99.90
17948;DHT22;9099;47.958;11.366;2023-04-28T07:13:41;11.70;99.90
17948;DHT22;9099;47.958;11.366;2023-04-28T07:16:07;11.70;99.90
17948;DHT22;9099;47.958;11.366;2023-04-28T07:18:35;11.70;99.90
17948;DHT22;9099;47.958;11.366;2023-04-28T07:21:02;11.70;99.90
17948;DHT22;9099;47.958;11.366;2023-04-28T07:23:29;11.70;99.90
17948;DHT22;9099;47.958;11.366;2023-04-28T07:25:57;11.70;99.90
17948;DHT22;9099;47.958;11.366;2023-04-28T07:28:24;11.70;99.90
17948;DHT22;9099;47.958;11.366;2023-04-28T07:30:51;11.90;99.90
17948;DHT22;9099;47.958;11.366;2023-04-28T07:33:18;12.00;99.90
17948;DHT22;9099;47.958;11.366;2023-04-28T07:35:45;12.10;99.90
17948;DHT22;9099;47.958;11.366;2023-04-28T07:38:12;12.10;99.90
17948;DHT22;9099;47.958;11.366;2023-04-28T07:40:41;12.10;99.90
17948;DHT22;9099;47.958;11.366;2023-04-28T07:43:09;12.20;99.90
17948;DHT22;9099;47.958;11.366;2023-04-28T07:45:37;12.30;99.90
17948;DHT22;9099;47.958;11.366;2023-04-28T07:48:04;12.30;99.90
17948;DHT22;9099;47.958;11.366;2023-04-28T07:50:31;12.30;99.90
17948;DHT22;9099;47.958;11.366;2023-04-28T07:52:58;12.40;99.90
17948;DHT22;9099;47.958;11.366;2023-04-28T07:55:25;12.40;99.90
17948;DHT22;9099;47.958;11.366;2023-04-28T07:57:52;12.50;99.90
17948;DHT22;9099;47.958;11.366;2023-04-28T08:00:21;12.50;99.90
17948;DHT22;9099;47.958;11.366;2023-04-28T08:02:48;12.40;99.90
17948;DHT22;9099;47.958;11.366;2023-04-28T08:05:15;12.40;99.90
17948;DHT22;9099;47.958;11.366;2023-04-28T08:07:42;12.40;99.90
17948;DHT22;9099;47.958;11.366;2023-04-28T08:10:10;12.40;99.90
17948;DHT22;9099;47.958;11.366;2023-04-28T08:12:37;12.40;99.90
17948;DHT22;9099;47.958;11.366;2023-04-28T08:15:06;12.30;99.90
17948;DHT22;9099;47.958;11.366;2023-04-28T08:17:34;12.30;99.90
17948;DHT22;9099;47.958;11.366;2023-04-28T08:20:01;12.30;99.90
17948;DHT22;9099;47.958;11.366;2023-04-28T08:22:28;12.30;99.90
17948;DHT22;9099;47.958;11.366;2023-04-28T08:24:55;12.40;99.90
17948;DHT22;9099;47.958;11.366;2023-04-28T08:27:22;12.40;99.90
17948;DHT22;9099;47.958;11.366;2023-04-28T08:29:50;12.50;99.90
17948;DHT22;9099;47.958;11.366;2023-04-28T08:32:17;12.50;99.90
17948;DHT22;9099;47.958;11.366;2023-04-28T08:34:45;12.50;99.90
17948;DHT22;9099;47.958;11.366;2023-04-28T08:37:12;12.40;99.90
17948;DHT22;9099;47.958;11.366;2023-04-28T08:39:39;12.40;99.90
17948;DHT22;9099;47.958;11.366;2023-04-28T08:42:06;12.50;99.90
17948;DHT22;9099;47.958;11.366;2023-04-28T08:44:36;12.50;99.90
17948;DHT22;9099;47.958;11.366;2023-04-28T08:47:08;12.50;99.90
17948;DHT22;9099;47.958;11.366;2023-04-28T08:49:37;12.50;99.90
17948;DHT22;9099;47.958;11.366;2023-04-28T08:52:10;12.40;99.90
17948;DHT22;9099;47.958;11.366;2023-04-28T08:54:38;12.40;99.90
17948;DHT22;9099;47.958;11.366;2023-04-28T08:57:08;12.40;99.90
17948;DHT22;9099;47.958;11.366;2023-04-28T08:59:37;12.40;99.90
17948;DHT22;9099;47.958;11.366;2023-04-28T09:02:05;12.40;99.90
17948;DHT22;9099;47.958;11.366;2023-04-28T09:04:32;12.40;99.90
17948;DHT22;9099;47.958;11.366;2023-04-28T09:06:59;12.40;99.90
17948;DHT22;9099;47.958;11.366;2023-04-28T09:09:28;12.40;99.90
17948;DHT22;9099;47.958;11.366;2023-04-28T09:11:57;12.40;99.90
17948;DHT22;9099;47.958;11.366;2023-04-28T09:14:25;12.40;99.90
17948;DHT22;9099;47.958;11.366;2023-04-28T09:16:52;12.40;99.90
17948;DHT22;9099;47.958;11.366;2023-04-28T09:19:19;12.40;99.90
17948;DHT22;9099;47.958;11.366;2023-04-28T09:21:50;12.40;99.90
17948;DHT22;9099;47.958;11.366;2023-04-28T09:24:30;12.30;99.90
17948;DHT22;9099;47.958;11.366;2023-04-28T09:26:57;12.40;99.90
17948;DHT22;9099;47.958;11.366;2023-04-28T09:29:24;12.30;99.90
17948;DHT22;9099;47.958;11.366;2023-04-28T09:31:52;12.20;99.90
17948;DHT22;9099;47.958;11.366;2023-04-28T09:34:20;12.20;99.90
17948;DHT22;9099;47.958;11.366;2023-04-28T09:36:47;12.20;99.90
17948;DHT22;9099;47.958;11.366;2023-04-28T09:39:14;12.20;99.90
17948;DHT22;9099;47.958;11.366;2023-04-28T09:41:43;12.10;99.90
17948;DHT22;9099;47.958;11.366;2023-04-28T09:44:12;12.10;99.90
17948;DHT22;9099;47.958;11.366;2023-04-28T09:46:39;12.10;99.90
17948;DHT22;9099;47.958;11.366;2023-04-28T09:49:05;12.10;99.90
17948;DHT22;9099;47.958;11.366;2023-04-28T09:51:33;12.20;99.90
17948;DHT22;9099;47.958;11.366;2023-04-28T09:54:00;12.10;99.90
17948;DHT22;9099;47.958;11.366;2023-04-28T09:56:29;12.10;99.90
17948;DHT22;9099;47.958;11.366;2023-04-28T09:58:58;12.10;99.90
17948;DHT22;9099;47.958;11.366;2023-04-28T10:01:26;12.10;99.90
17948;DHT22;9099;47.958;11.366;2023-04-28T10:03:55;12.00;99.90
17948;DHT22;9099;47.958;11.366;2023-04-28T10:06:24;12.10;99.90
17948;DHT22;9099;47.958;11.366;2023-04-28T10:08:52;12.10;99.90
17948;DHT22;9099;47.958;11.366;2023-04-28T10:11:19;12.00;99.90
17948;DHT22;9099;47.958;11.366;2023-04-28T10:13:48;12.10;99.90
17948;DHT22;9099;47.958;11.366;2023-04-28T10:16:16;12.10;99.90
17948;DHT22;9099;47.958;11.366;2023-04-28T10:18:45;12.10;99.90
17948;DHT22;9099;47.958;11.366;2023-04-28T10:21:15;12.10;99.90
17948;DHT22;9099;47.958;11.366;2023-04-28T10:24:13;12.20;99.90
17948;DHT22;9099;47.958;11.366;2023-04-28T10:27:01;12.10;99.90
17948;DHT22;9099;47.958;11.366;2023-04-28T10:29:30;12.10;99.90
17948;DHT22;9099;47.958;11.366;2023-04-28T10:32:18;12.10;99.90
17948;DHT22;9099;47.958;11.366;2023-04-28T10:34:46;12.10;99.90
17948;DHT22;9099;47.958;11.366;2023-04-28T10:37:13;12.20;99.90
17948;DHT22;9099;47.958;11.366;2023-04-28T10:40:30;12.10;99.90
17948;DHT22;9099;47.958;11.366;2023-04-28T10:42:57;12.10;99.90
17948;DHT22;9099;47.958;11.366;2023-04-28T10:45:58;12.20;99.90
17948;DHT22;9099;47.958;11.366;2023-04-28T10:48:52;12.30;99.90
17948;DHT22;9099;47.958;11.366;2023-04-28T10:51:23;12.30;99.90
17948;DHT22;9099;47.958;11.366;2023-04-28T10:54:15;12.40;99.90
17948;DHT22;9099;47.958;11.366;2023-04-28T10:57:15;12.60;99.90
17948;DHT22;9099;47.958;11.366;2023-04-28T10:59:43;12.70;99.90
17948;DHT22;9099;47.958;11.366;2023-04-28T11:02:35;12.80;99.90
17948;DHT22;9099;47.958;11.366;2023-04-28T11:05:15;12.80;99.90
17948;DHT22;9099;47.958;11.366;2023-04-28T11:11:21;12.70;99.90
17948;DHT22;9099;47.958;11.366;2023-04-28T11:13:50;12.70;99.90
17948;DHT22;9099;47.958;11.366;2023-04-28T11:16:19;12.60;99.90
17948;DHT22;9099;47.958;11.366;2023-04-28T11:18:50;12.50;99.90
17948;DHT22;9099;47.958;11.366;2023-04-28T11:21:18;12.50;99.90
17948;DHT22;9099;47.958;11.366;2023-04-28T11:23:46;12.50;99.90
17948;DHT22;9099;47.958;11.366;2023-04-28T11:26:13;12.40;99.90
17948;DHT22;9099;47.958;11.366;2023-04-28T11:28:47;12.40;99.90
17948;DHT22;9099;47.958;11.366;2023-04-28T11:31:16;12.40;99.90
17948;DHT22;9099;47.958;11.366;2023-04-28T11:33:48;12.40;99.90
17948;DHT22;9099;47.958;11.366;2023-04-28T11:36:31;12.40;99.90
17948;DHT22;9099;47.958;11.366;2023-04-28T11:39:00;12.40;99.90
17948;DHT22;9099;47.958;11.366;2023-04-28T11:41:29;12.50;99.90
17948;DHT22;9099;47.958;11.366;2023-04-28T11:43:56;12.50;99.90
17948;DHT22;9099;47.958;11.366;2023-04-28T11:46:24;12.50;99.90
17948;DHT22;9099;47.958;11.366;2023-04-28T11:48:59;12.60;99.90
17948;DHT22;9099;47.958;11.366;2023-04-28T11:51:33;12.70;99.90
17948;DHT22;9099;47.958;11.366;2023-04-28T11:54:02;12.70;99.90
17948;DHT22;9099;47.958;11.366;2023-04-28T11:56:30;12.80;99.90
17948;DHT22;9099;47.958;11.366;2023-04-28T11:59:03;12.80;99.90
17948;DHT22;9099;47.958;11.366;2023-04-28T12:01:31;12.80;99.90
17948;DHT22;9099;47.958;11.366;2023-04-28T12:03:58;12.90;99.90
17948;DHT22;9099;47.958;11.366;2023-04-28T12:06:25;13.00;99.90
17948;DHT22;9099;47.958;11.366;2023-04-28T12:08:54;12.90;99.90
17948;DHT22;9099;47.958;11.366;2023-04-28T12:11:22;12.90;99.90
17948;DHT22;9099;47.958;11.366;2023-04-28T12:14:05;12.90;99.90
17948;DHT22;9099;47.958;11.366;2023-04-28T12:16:40;12.90;99.90
17948;DHT22;9099;47.958;11.366;2023-04-28T12:19:10;13.00;99.90
17948;DHT22;9099;47.958;11.366;2023-04-28T12:21:37;13.10;99.90
17948;DHT22;9099;47.958;11.366;2023-04-28T12:24:17;13.20;99.90
17948;DHT22;9099;47.958;11.366;2023-04-28T12:26:44;13.30;99.90
17948;DHT22;9099;47.958;11.366;2023-04-28T12:29:35;13.30;99.90
17948;DHT22;9099;47.958;11.366;2023-04-28T12:32:03;13.40;99.90
17948;DHT22;9099;47.958;11.366;2023-04-28T12:34:30;13.40;99.90
17948;DHT22;9099;47.958;11.366;2023-04-28T12:36:58;13.40;99.90
17948;DHT22;9099;47.958;11.366;2023-04-28T12:39:26;13.30;99.90
17948;DHT22;9099;47.958;11.366;2023-04-28T12:41:53;13.30;99.90
17948;DHT22;9099;47.958;11.366;2023-04-28T12:44:20;13.40;99.90
17948;DHT22;9099;47.958;11.366;2023-04-28T12:46:48;13.40;99.90
17948;DHT22;9099;47.958;11.366;2023-04-28T12:49:14;13.40;99.90
17948;DHT22;9099;47.958;11.366;2023-04-28T12:51:41;13.40;99.90
17948;DHT22;9099;47.958;11.366;2023-04-28T12:54:08;13.30;99.90
17948;DHT22;9099;47.958;11.366;2023-04-28T12:56:36;13.30;99.90
17948;DHT22;9099;47.958;11.366;2023-04-28T12:59:03;13.40;99.90
17948;DHT22;9099;47.958;11.366;2023-04-28T13:01:30;13.30;99.90
17948;DHT22;9099;47.958;11.366;2023-04-28T13:03:58;13.40;99.90
17948;DHT22;9099;47.958;11.366;2023-04-28T13:06:26;13.50;99.90
17948;DHT22;9099;47.958;11.366;2023-04-28T13:08:53;13.50;99.90
17948;DHT22;9099;47.958;11.366;2023-04-28T13:11:20;13.50;99.90
17948;DHT22;9099;47.958;11.366;2023-04-28T13:13:50;13.40;99.90
17948;DHT22;9099;47.958;11.366;2023-04-28T13:16:17;13.40;99.90
17948;DHT22;9099;47.958;11.366;2023-04-28T13:18:44;13.40;99.90
17948;DHT22;9099;47.958;11.366;2023-04-28T13:21:11;13.50;99.90
17948;DHT22;9099;47.958;11.366;2023-04-28T13:23:38;13.60;99.90
17948;DHT22;9099;47.958;11.366;2023-04-28T13:26:05;13.70;99.90
17948;DHT22;9099;47.958;11.366;2023-04-28T13:28:32;13.70;99.90
17948;DHT22;9099;47.958;11.366;2023-04-28T13:31:00;13.70;99.90
17948;DHT22;9099;47.958;11.366;2023-04-28T13:33:27;13.70;99.90
17948;DHT22;9099;47.958;11.366;2023-04-28T13:35:56;13.80;99.90
17948;DHT22;9099;47.958;11.366;2023-04-28T13:38:23;13.80;99.90
17948;DHT22;9099;47.958;11.366;2023-04-28T13:40:51;13.70;99.90
17948;DHT22;9099;47.958;11.366;2023-04-28T13:43:18;13.70;99.90
17948;DHT22;9099;47.958;11.366;2023-04-28T13:45:45;13.80;99.90
17948;DHT22;9099;47.958;11.366;2023-04-28T13:48:13;13.80;99.90
17948;DHT22;9099;47.958;11.366;2023-04-28T13:50:40;13.90;99.90
17948;DHT22;9099;47.958;11.366;2023-04-28T13:53:07;14.10;99.90
17948;DHT22;9099;47.958;11.366;2023-04-28T13:55:34;14.20;99.90
17948;DHT22;9099;47.958;11.366;2023-04-28T13:58:01;14.40;99.90
17948;DHT22;9099;47.958;11.366;2023-04-28T14:00:29;14.40;99.90
17948;DHT22;9099;47.958;11.366;2023-04-28T14:02:56;14.40;99.90
17948;DHT22;9099;47.958;11.366;2023-04-28T14:05:25;14.40;99.90
17948;DHT22;9099;47.958;11.366;2023-04-28T14:07:52;14.50;99.90
17948;DHT22;9099;47.958;11.366;2023-04-28T14:10:19;14.60;99.90
17948;DHT22;9099;47.958;11.366;2023-04-28T14:12:46;14.70;99.90
17948;DHT22;9099;47.958;11.366;2023-04-28T14:15:14;14.70;99.90
17948;DHT22;9099;47.958;11.366;2023-04-28T14:17:42;14.80;99.90
17948;DHT22;9099;47.958;11.366;2023-04-28T14:20:09;14.80;99.90
17948;DHT22;9099;47.958;11.366;2023-04-28T14:22:38;14.80;99.90
17948;DHT22;9099;47.958;11.366;2023-04-28T14:25:05;14.80;99.90
17948;DHT22;9099;47.958;11.366;2023-04-28T14:27:33;14.70;99.90
17948;DHT22;9099;47.958;11.366;2023-04-28T14:30:00;14.80;99.90
17948;DHT22;9099;47.958;11.366;2023-04-28T14:32:28;14.80;99.90
17948;DHT22;9099;47.958;11.366;2023-04-28T14:34:55;14.70;99.90
17948;DHT22;9099;47.958;11.366;2023-04-28T14:37:22;14.70;99.90
17948;DHT22;9099;47.958;11.366;2023-04-28T14:39:50;14.80;99.90
17948;DHT22;9099;47.958;11.366;2023-04-28T14:42:17;14.70;99.90
17948;DHT22;9099;47.958;11.366;2023-04-28T14:44:44;14.70;99.90
17948;DHT22;9099;47.958;11.366;2023-04-28T14:47:11;14.70;99.90
17948;DHT22;9099;47.958;11.366;2023-04-28T14:49:38;14.60;99.90
17948;DHT22;9099;47.958;11.366;2023-04-28T14:52:05;14.50;99.90
17948;DHT22;9099;47.958;11.366;2023-04-28T14:54:32;14.50;99.90
17948;DHT22;9099;47.958;11.366;2023-04-28T14:57:00;14.50;99.90
17948;DHT22;9099;47.958;11.366;2023-04-28T14:59:27;14.50;99.90
17948;DHT22;9099;47.958;11.366;2023-04-28T15:01:54;14.50;99.90
17948;DHT22;9099;47.958;11.366;2023-04-28T15:04:21;14.50;99.90
17948;DHT22;9099;47.958;11.366;2023-04-28T15:06:53;14.50;99.90
17948;DHT22;9099;47.958;11.366;2023-04-28T15:09:20;14.50;99.90
17948;DHT22;9099;47.958;11.366;2023-04-28T15:11:47;14.60;99.90
17948;DHT22;9099;47.958;11.366;2023-04-28T15:14:15;14.60;99.90
17948;DHT22;9099;47.958;11.366;2023-04-28T15:16:43;14.70;99.90
17948;DHT22;9099;47.958;11.366;2023-04-28T15:19:10;14.70;99.90
17948;DHT22;9099;47.958;11.366;2023-04-28T15:21:37;14.60;99.90
17948;DHT22;9099;47.958;11.366;2023-04-28T15:24:04;14.60;99.90
17948;DHT22;9099;47.958;11.366;2023-04-28T15:26:31;14.50;99.90
17948;DHT22;9099;47.958;11.366;2023-04-28T15:28:58;14.50;99.90
17948;DHT22;9099;47.958;11.366;2023-04-28T15:31:26;14.50;99.90
17948;DHT22;9099;47.958;11.366;2023-04-28T15:33:53;14.50;99.90
17948;DHT22;9099;47.958;11.366;2023-04-28T15:36:21;14.50;99.90
17948;DHT22;9099;47.958;11.366;2023-04-28T15:38:48;14.50;99.90
17948;DHT22;9099;47.958;11.366;2023-04-28T15:41:16;14.50;99.90
17948;DHT22;9099;47.958;11.366;2023-04-28T15:43:43;14.50;99.90